sensor_id;sensor_type;location;lat;lon;timestamp;temperature;humidity
14142;DHT22;7151;52.246;4.820;2024-03-08T00:00:40;10.20;71.60
14142;DHT22;7151;52.246;4.820;2024-03-08T00:03:08;10.20;70.90
14142;DHT22;7151;52.246;4.820;2024-03-08T00:05:35;10.10;70.80
14142;DHT22;7151;52.246;4.820;2024-03-08T00:08:01;10.10;70.90
14142;DHT22;7151;52.246;4.820;2024-03-08T00:10:27;10.00;70.80
14142;DHT22;7151;52.246;4.820;2024-03-08T00:12:54;10.00;70.80
14142;DHT22;7151;52.246;4.820;2024-03-08T00:15:20;10.00;70.90
14142;DHT22;7151;52.246;4.820;2024-03-08T00:17:48;10.00;71.00
14142;DHT22;7151;52.246;4.820;2024-03-08T00:20:14;10.00;71.00
14142;DHT22;7151;52.246;4.820;2024-03-08T00:22:40;10.00;71.00
14142;DHT22;7151;52.246;4.820;2024-03-08T00:25:07;10.00;71.00
14142;DHT22;7151;52.246;4.820;2024-03-08T00:27:36;10.00;71.00
14142;DHT22;7151;52.246;4.820;2024-03-08T00:30:02;10.00;71.00
14142;DHT22;7151;52.246;4.820;2024-03-08T00:32:28;10.00;71.00
14142;DHT22;7151;52.246;4.820;2024-03-08T00:34:54;10.00;71.00
14142;DHT22;7151;52.246;4.820;2024-03-08T00:37:20;10.00;71.00
14142;DHT22;7151;52.246;4.820;2024-03-08T00:39:48;10.00;71.70
14142;DHT22;7151;52.246;4.820;2024-03-08T00:42:14;9.90;71.00
14142;DHT22;7151;52.246;4.820;2024-03-08T00:44:40;9.90;70.90
14142;DHT22;7151;52.246;4.820;2024-03-08T00:47:06;9.90;70.90
14142;DHT22;7151;52.246;4.820;2024-03-08T00:49:31;10.00;70.90
14142;DHT22;7151;52.246;4.820;2024-03-08T00:51:57;10.00;70.90
14142;DHT22;7151;52.246;4.820;2024-03-08T00:54:23;9.90;70.70
14142;DHT22;7151;52.246;4.820;2024-03-08T00:56:48;9.90;70.70
14142;DHT22;7151;52.246;4.820;2024-03-08T00:59:14;9.90;70.80
14142;DHT22;7151;52.246;4.820;2024-03-08T01:01:40;9.90;70.70
14142;DHT22;7151;52.246;4.820;2024-03-08T01:04:06;9.90;70.70
14142;DHT22;7151;52.246;4.820;2024-03-08T01:06:33;9.90;70.70
14142;DHT22;7151;52.246;4.820;2024-03-08T01:08:59;9.90;70.60
14142;DHT22;7151;52.246;4.820;2024-03-08T01:11:24;9.80;70.60
14142;DHT22;7151;52.246;4.820;2024-03-08T01:13:50;9.80;70.50
14142;DHT22;7151;52.246;4.820;2024-03-08T01:16:16;9.80;70.50
14142;DHT22;7151;52.246;4.820;2024-03-08T01:18:45;9.70;70.40
14142;DHT22;7151;52.246;4.820;2024-03-08T01:21:15;9.70;70.60
14142;DHT22;7151;52.246;4.820;2024-03-08T01:23:41;9.70;70.60
14142;DHT22;7151;52.246;4.820;2024-03-08T01:26:09;9.70;70.60
14142;DHT22;7151;52.246;4.820;2024-03-08T01:28:35;9.70;70.60
14142;DHT22;7151;52.246;4.820;2024-03-08T01:31:01;9.60;70.50
14142;DHT22;7151;52.246;4.820;2024-03-08T01:33:27;9.60;70.50
14142;DHT22;7151;52.246;4.820;2024-03-08T01:35:53;9.50;70.40
14142;DHT22;7151;52.246;4.820;2024-03-08T01:38:19;9.60;70.40
14142;DHT22;7151;52.246;4.820;2024-03-08T01:40:47;9.60;70.50
14142;DHT22;7151;52.246;4.820;2024-03-08T01:43:22;9.60;70.50
14142;DHT22;7151;52.246;4.820;2024-03-08T01:45:48;9.60;70.40
14142;DHT22;7151;52.246;4.820;2024-03-08T01:48:17;9.60;70.40
14142;DHT22;7151;52.246;4.820;2024-03-08T01:50:44;9.60;70.40
14142;DHT22;7151;52.246;4.820;2024-03-08T01:53:11;9.50;70.30
14142;DHT22;7151;52.246;4.820;2024-03-08T01:55:38;9.50;70.30
14142;DHT22;7151;52.246;4.820;2024-03-08T01:58:09;9.50;70.30
14142;DHT22;7151;52.246;4.820;2024-03-08T02:00:35;9.50;70.30
14142;DHT22;7151;52.246;4.820;2024-03-08T02:03:02;9.50;70.20
14142;DHT22;7151;52.246;4.820;2024-03-08T02:05:28;9.50;70.20
14142;DHT22;7151;52.246;4.820;2024-03-08T02:07:54;9.30;70.00
14142;DHT22;7151;52.246;4.820;2024-03-08T02:10:20;9.40;70.20
14142;DHT22;7151;52.246;4.820;2024-03-08T02:12:47;9.40;70.20
14142;DHT22;7151;52.246;4.820;2024-03-08T02:15:13;9.40;70.30
14142;DHT22;7151;52.246;4.820;2024-03-08T02:17:40;9.40;70.20
14142;DHT22;7151;52.246;4.820;2024-03-08T02:20:07;9.40;70.30
14142;DHT22;7151;52.246;4.820;2024-03-08T02:22:34;9.30;70.30
14142;DHT22;7151;52.246;4.820;2024-03-08T02:25:00;9.30;70.30
14142;DHT22;7151;52.246;4.820;2024-03-08T02:27:27;9.30;70.20
14142;DHT22;7151;52.246;4.820;2024-03-08T02:29:56;9.30;70.20
14142;DHT22;7151;52.246;4.820;2024-03-08T02:32:25;9.30;70.30
14142;DHT22;7151;52.246;4.820;2024-03-08T02:34:51;9.30;70.30
14142;DHT22;7151;52.246;4.820;2024-03-08T02:37:21;9.20;70.20
14142;DHT22;7151;52.246;4.820;2024-03-08T02:39:46;9.20;70.20
14142;DHT22;7151;52.246;4.820;2024-03-08T02:42:12;9.20;70.20
14142;DHT22;7151;52.246;4.820;2024-03-08T02:44:42;9.20;70.20
14142;DHT22;7151;52.246;4.820;2024-03-08T02:47:09;9.20;70.20
14142;DHT22;7151;52.246;4.820;2024-03-08T02:49:36;9.20;70.20
14142;DHT22;7151;52.246;4.820;2024-03-08T02:52:03;9.20;70.00
14142;DHT22;7151;52.246;4.820;2024-03-08T02:54:30;9.10;70.00
14142;DHT22;7151;52.246;4.820;2024-03-08T02:56:55;9.10;70.00
14142;DHT22;7151;52.246;4.820;2024-03-08T02:59:21;9.10;70.00
14142;DHT22;7151;52.246;4.820;2024-03-08T03:01:47;9.10;70.00
14142;DHT22;7151;52.246;4.820;2024-03-08T03:04:13;9.10;70.10
14142;DHT22;7151;52.246;4.820;2024-03-08T03:06:38;9.00;70.00
14142;DHT22;7151;52.246;4.820;2024-03-08T03:09:04;9.00;70.00
14142;DHT22;7151;52.246;4.820;2024-03-08T03:11:31;9.00;70.00
14142;DHT22;7151;52.246;4.820;2024-03-08T03:13:57;9.00;70.00
14142;DHT22;7151;52.246;4.820;2024-03-08T03:16:23;9.00;70.00
14142;DHT22;7151;52.246;4.820;2024-03-08T03:18:49;9.00;69.90
14142;DHT22;7151;52.246;4.820;2024-03-08T03:21:15;8.90;69.70
14142;DHT22;7151;52.246;4.820;2024-03-08T03:23:41;8.90;69.70
14142;DHT22;7151;52.246;4.820;2024-03-08T03:26:08;8.90;69.70
14142;DHT22;7151;52.246;4.820;2024-03-08T03:28:33;8.90;69.80
14142;DHT22;7151;52.246;4.820;2024-03-08T03:30:59;8.80;69.80
14142;DHT22;7151;52.246;4.820;2024-03-08T03:33:25;8.80;69.80
14142;DHT22;7151;52.246;4.820;2024-03-08T03:35:51;8.90;69.80
14142;DHT22;7151;52.246;4.820;2024-03-08T03:38:20;8.80;69.80
14142;DHT22;7151;52.246;4.820;2024-03-08T03:40:48;8.70;69.80
14142;DHT22;7151;52.246;4.820;2024-03-08T03:43:17;8.70;69.80
14142;DHT22;7151;52.246;4.820;2024-03-08T03:45:43;8.70;69.90
14142;DHT22;7151;52.246;4.820;2024-03-08T03:48:09;8.70;69.90
14142;DHT22;7151;52.246;4.820;2024-03-08T03:50:35;8.70;70.00
14142;DHT22;7151;52.246;4.820;2024-03-08T03:53:01;8.70;70.00
14142;DHT22;7151;52.246;4.820;2024-03-08T03:55:28;8.70;70.00
14142;DHT22;7151;52.246;4.820;2024-03-08T03:57:54;8.60;69.80
14142;DHT22;7151;52.246;4.820;2024-03-08T04:00:20;8.70;70.00
14142;DHT22;7151;52.246;4.820;2024-03-08T04:02:45;8.60;69.80
14142;DHT22;7151;52.246;4.820;2024-03-08T04:05:12;8.60;69.80
14142;DHT22;7151;52.246;4.820;2024-03-08T04:07:38;8.60;69.90
14142;DHT22;7151;52.246;4.820;2024-03-08T04:10:05;8.60;70.00
14142;DHT22;7151;52.246;4.820;2024-03-08T04:12:32;8.60;70.00
14142;DHT22;7151;52.246;4.820;2024-03-08T04:14:58;8.50;69.90
14142;DHT22;7151;52.246;4.820;2024-03-08T04:17:24;8.50;70.00
14142;DHT22;7151;52.246;4.820;2024-03-08T04:19:50;8.50;70.00
14142;DHT22;7151;52.246;4.820;2024-03-08T04:22:15;8.50;70.70
14142;DHT22;7151;52.246;4.820;2024-03-08T04:24:43;8.50;70.10
14142;DHT22;7151;52.246;4.820;2024-03-08T04:27:09;8.50;70.00
14142;DHT22;7151;52.246;4.820;2024-03-08T04:29:34;8.50;70.00
14142;DHT22;7151;52.246;4.820;2024-03-08T04:32:03;8.50;70.10
14142;DHT22;7151;52.246;4.820;2024-03-08T04:34:29;8.50;70.10
14142;DHT22;7151;52.246;4.820;2024-03-08T04:36:57;8.40;69.80
14142;DHT22;7151;52.246;4.820;2024-03-08T04:39:23;8.40;69.80
14142;DHT22;7151;52.246;4.820;2024-03-08T04:41:49;8.40;69.80
14142;DHT22;7151;52.246;4.820;2024-03-08T04:44:15;8.40;69.90
14142;DHT22;7151;52.246;4.820;2024-03-08T04:46:43;8.40;69.90
14142;DHT22;7151;52.246;4.820;2024-03-08T04:49:08;8.30;69.80
14142;DHT22;7151;52.246;4.820;2024-03-08T04:51:34;8.30;69.90
14142;DHT22;7151;52.246;4.820;2024-03-08T04:53:59;8.30;69.90
14142;DHT22;7151;52.246;4.820;2024-03-08T04:56:25;8.30;69.90
14142;DHT22;7151;52.246;4.820;2024-03-08T04:58:51;8.30;69.90
14142;DHT22;7151;52.246;4.820;2024-03-08T05:01:16;8.30;69.90
14142;DHT22;7151;52.246;4.820;2024-03-08T05:03:42;8.30;70.00
14142;DHT22;7151;52.246;4.820;2024-03-08T05:06:08;8.30;70.00
14142;DHT22;7151;52.246;4.820;2024-03-08T05:08:34;8.30;70.00
14142;DHT22;7151;52.246;4.820;2024-03-08T05:11:00;8.20;69.80
14142;DHT22;7151;52.246;4.820;2024-03-08T05:13:32;8.30;69.80
14142;DHT22;7151;52.246;4.820;2024-03-08T05:15:57;8.20;69.70
14142;DHT22;7151;52.246;4.820;2024-03-08T05:18:24;8.20;69.70
14142;DHT22;7151;52.246;4.820;2024-03-08T05:20:50;8.20;69.70
14142;DHT22;7151;52.246;4.820;2024-03-08T05:23:17;8.20;69.80
14142;DHT22;7151;52.246;4.820;2024-03-08T05:25:45;8.10;69.80
14142;DHT22;7151;52.246;4.820;2024-03-08T05:28:12;8.20;69.80
14142;DHT22;7151;52.246;4.820;2024-03-08T05:30:38;8.20;69.80
14142;DHT22;7151;52.246;4.820;2024-03-08T05:33:04;8.20;69.70
14142;DHT22;7151;52.246;4.820;2024-03-08T05:35:30;8.10;69.70
14142;DHT22;7151;52.246;4.820;2024-03-08T05:37:56;8.10;69.70
14142;DHT22;7151;52.246;4.820;2024-03-08T05:40:21;8.10;69.70
14142;DHT22;7151;52.246;4.820;2024-03-08T05:42:47;8.10;69.70
14142;DHT22;7151;52.246;4.820;2024-03-08T05:45:12;8.10;69.70
14142;DHT22;7151;52.246;4.820;2024-03-08T05:47:39;8.00;69.60
14142;DHT22;7151;52.246;4.820;2024-03-08T05:50:05;8.00;70.30
14142;DHT22;7151;52.246;4.820;2024-03-08T05:52:33;8.00;69.70
14142;DHT22;7151;52.246;4.820;2024-03-08T05:54:59;8.00;69.70
14142;DHT22;7151;52.246;4.820;2024-03-08T05:57:24;8.00;69.70
14142;DHT22;7151;52.246;4.820;2024-03-08T05:59:50;8.00;69.70
14142;DHT22;7151;52.246;4.820;2024-03-08T06:02:15;7.90;69.70
14142;DHT22;7151;52.246;4.820;2024-03-08T06:04:46;7.90;69.70
14142;DHT22;7151;52.246;4.820;2024-03-08T06:07:12;7.90;69.70
14142;DHT22;7151;52.246;4.820;2024-03-08T06:09:38;7.90;69.70
14142;DHT22;7151;52.246;4.820;2024-03-08T06:12:04;7.90;69.80
14142;DHT22;7151;52.246;4.820;2024-03-08T06:14:32;7.80;69.80
14142;DHT22;7151;52.246;4.820;2024-03-08T06:16:57;7.90;69.90
14142;DHT22;7151;52.246;4.820;2024-03-08T06:19:23;7.80;69.90
14142;DHT22;7151;52.246;4.820;2024-03-08T06:21:49;7.80;70.60
14142;DHT22;7151;52.246;4.820;2024-03-08T06:24:14;7.80;69.90
14142;DHT22;7151;52.246;4.820;2024-03-08T06:26:40;7.80;69.90
14142;DHT22;7151;52.246;4.820;2024-03-08T06:29:06;7.80;69.90
14142;DHT22;7151;52.246;4.820;2024-03-08T06:31:32;7.80;69.90
14142;DHT22;7151;52.246;4.820;2024-03-08T06:33:58;7.80;69.90
14142;DHT22;7151;52.246;4.820;2024-03-08T06:36:23;7.80;69.90
14142;DHT22;7151;52.246;4.820;2024-03-08T06:38:49;7.80;69.90
14142;DHT22;7151;52.246;4.820;2024-03-08T06:41:15;7.80;69.90
14142;DHT22;7151;52.246;4.820;2024-03-08T06:43:44;7.80;69.90
14142;DHT22;7151;52.246;4.820;2024-03-08T06:46:11;7.80;69.80
14142;DHT22;7151;52.246;4.820;2024-03-08T06:48:39;7.70;69.70
14142;DHT22;7151;52.246;4.820;2024-03-08T06:51:05;7.70;69.70
14142;DHT22;7151;52.246;4.820;2024-03-08T06:53:31;7.70;69.80
14142;DHT22;7151;52.246;4.820;2024-03-08T06:56:00;7.70;69.90
14142;DHT22;7151;52.246;4.820;2024-03-08T06:58:26;7.70;69.90
14142;DHT22;7151;52.246;4.820;2024-03-08T07:00:53;7.70;69.90
14142;DHT22;7151;52.246;4.820;2024-03-08T07:03:19;7.70;69.90
14142;DHT22;7151;52.246;4.820;2024-03-08T07:05:45;7.80;70.00
14142;DHT22;7151;52.246;4.820;2024-03-08T07:08:11;7.70;69.90
14142;DHT22;7151;52.246;4.820;2024-03-08T07:10:39;7.70;69.90
14142;DHT22;7151;52.246;4.820;2024-03-08T07:13:07;7.70;69.90
14142;DHT22;7151;52.246;4.820;2024-03-08T07:15:33;7.70;70.00
14142;DHT22;7151;52.246;4.820;2024-03-08T07:17:58;7.70;69.90
14142;DHT22;7151;52.246;4.820;2024-03-08T07:20:25;7.70;69.90
14142;DHT22;7151;52.246;4.820;2024-03-08T07:22:51;7.70;70.00
14142;DHT22;7151;52.246;4.820;2024-03-08T07:25:17;7.70;70.00
14142;DHT22;7151;52.246;4.820;2024-03-08T07:27:53;7.70;70.00
14142;DHT22;7151;52.246;4.820;2024-03-08T07:30:26;7.70;70.00
14142;DHT22;7151;52.246;4.820;2024-03-08T07:33:10;7.80;70.00
14142;DHT22;7151;52.246;4.820;2024-03-08T07:35:37;7.80;70.60
14142;DHT22;7151;52.246;4.820;2024-03-08T07:38:07;7.70;69.90
14142;DHT22;7151;52.246;4.820;2024-03-08T07:40:40;7.70;70.00
14142;DHT22;7151;52.246;4.820;2024-03-08T07:43:10;7.70;70.00
14142;DHT22;7151;52.246;4.820;2024-03-08T07:45:36;7.70;70.00
14142;DHT22;7151;52.246;4.820;2024-03-08T07:48:03;7.80;70.10
14142;DHT22;7151;52.246;4.820;2024-03-08T07:50:28;7.70;70.00
14142;DHT22;7151;52.246;4.820;2024-03-08T07:52:54;7.80;70.20
14142;DHT22;7151;52.246;4.820;2024-03-08T07:55:20;7.70;70.20
14142;DHT22;7151;52.246;4.820;2024-03-08T07:57:47;7.80;70.30
14142;DHT22;7151;52.246;4.820;2024-03-08T08:00:13;7.90;70.60
14142;DHT22;7151;52.246;4.820;2024-03-08T08:02:46;7.80;70.20
14142;DHT22;7151;52.246;4.820;2024-03-08T08:05:12;7.90;70.20
14142;DHT22;7151;52.246;4.820;2024-03-08T08:07:40;7.90;70.20
14142;DHT22;7151;52.246;4.820;2024-03-08T08:10:09;7.90;70.20
14142;DHT22;7151;52.246;4.820;2024-03-08T08:12:40;7.90;70.30
14142;DHT22;7151;52.246;4.820;2024-03-08T08:15:07;8.00;70.40
14142;DHT22;7151;52.246;4.820;2024-03-08T08:17:33;8.00;70.40
14142;DHT22;7151;52.246;4.820;2024-03-08T08:20:00;8.00;70.40
14142;DHT22;7151;52.246;4.820;2024-03-08T08:22:25;8.00;70.40
14142;DHT22;7151;52.246;4.820;2024-03-08T08:24:51;8.20;70.50
14142;DHT22;7151;52.246;4.820;2024-03-08T08:27:17;8.10;70.50
14142;DHT22;7151;52.246;4.820;2024-03-08T08:29:43;8.10;70.50
14142;DHT22;7151;52.246;4.820;2024-03-08T08:32:08;8.20;70.50
14142;DHT22;7151;52.246;4.820;2024-03-08T08:34:35;8.20;70.50
14142;DHT22;7151;52.246;4.820;2024-03-08T08:37:01;8.20;70.30
14142;DHT22;7151;52.246;4.820;2024-03-08T08:39:27;8.20;70.30
14142;DHT22;7151;52.246;4.820;2024-03-08T08:41:53;8.20;70.20
14142;DHT22;7151;52.246;4.820;2024-03-08T08:44:18;8.30;70.40
14142;DHT22;7151;52.246;4.820;2024-03-08T08:46:44;8.30;70.50
14142;DHT22;7151;52.246;4.820;2024-03-08T08:49:09;8.30;70.50
14142;DHT22;7151;52.246;4.820;2024-03-08T08:51:40;8.40;70.50
14142;DHT22;7151;52.246;4.820;2024-03-08T08:54:05;8.40;70.30
14142;DHT22;7151;52.246;4.820;2024-03-08T08:56:35;8.40;70.30
14142;DHT22;7151;52.246;4.820;2024-03-08T08:59:00;8.40;70.30
14142;DHT22;7151;52.246;4.820;2024-03-08T09:01:26;8.40;70.30
14142;DHT22;7151;52.246;4.820;2024-03-08T09:03:52;8.50;70.30
14142;DHT22;7151;52.246;4.820;2024-03-08T09:06:19;8.50;70.30
14142;DHT22;7151;52.246;4.820;2024-03-08T09:08:45;8.50;70.30
14142;DHT22;7151;52.246;4.820;2024-03-08T09:11:11;8.50;70.30
14142;DHT22;7151;52.246;4.820;2024-03-08T09:13:37;8.70;70.50
14142;DHT22;7151;52.246;4.820;2024-03-08T09:16:03;8.60;70.50
14142;DHT22;7151;52.246;4.820;2024-03-08T09:18:30;8.70;70.60
14142;DHT22;7151;52.246;4.820;2024-03-08T09:20:57;8.70;70.60
14142;DHT22;7151;52.246;4.820;2024-03-08T09:23:23;8.70;70.60
14142;DHT22;7151;52.246;4.820;2024-03-08T09:25:49;8.80;70.70
14142;DHT22;7151;52.246;4.820;2024-03-08T09:28:15;8.90;70.60
14142;DHT22;7151;52.246;4.820;2024-03-08T09:30:41;8.90;70.50
14142;DHT22;7151;52.246;4.820;2024-03-08T09:33:06;8.90;70.50
14142;DHT22;7151;52.246;4.820;2024-03-08T09:35:33;9.00;70.50
14142;DHT22;7151;52.246;4.820;2024-03-08T09:37:58;9.00;70.50
14142;DHT22;7151;52.246;4.820;2024-03-08T09:40:24;9.00;70.50
14142;DHT22;7151;52.246;4.820;2024-03-08T09:42:51;9.10;71.40
14142;DHT22;7151;52.246;4.820;2024-03-08T09:45:20;9.20;70.60
14142;DHT22;7151;52.246;4.820;2024-03-08T09:47:47;9.20;70.60
14142;DHT22;7151;52.246;4.820;2024-03-08T09:50:14;9.20;70.50
14142;DHT22;7151;52.246;4.820;2024-03-08T09:52:40;9.30;70.50
14142;DHT22;7151;52.246;4.820;2024-03-08T09:55:06;9.40;71.30
14142;DHT22;7151;52.246;4.820;2024-03-08T09:57:33;9.40;70.60
14142;DHT22;7151;52.246;4.820;2024-03-08T10:00:00;9.50;70.70
14142;DHT22;7151;52.246;4.820;2024-03-08T10:02:26;9.50;70.80
14142;DHT22;7151;52.246;4.820;2024-03-08T10:04:52;9.60;70.80
14142;DHT22;7151;52.246;4.820;2024-03-08T10:07:18;9.70;70.80
14142;DHT22;7151;52.246;4.820;2024-03-08T10:09:44;9.70;70.60
14142;DHT22;7151;52.246;4.820;2024-03-08T10:12:16;9.80;70.50
14142;DHT22;7151;52.246;4.820;2024-03-08T10:14:45;9.80;70.40
14142;DHT22;7151;52.246;4.820;2024-03-08T10:17:12;9.90;70.30
14142;DHT22;7151;52.246;4.820;2024-03-08T10:19:37;9.90;70.30
14142;DHT22;7151;52.246;4.820;2024-03-08T10:22:04;10.00;70.20
14142;DHT22;7151;52.246;4.820;2024-03-08T10:24:31;10.10;70.30
14142;DHT22;7151;52.246;4.820;2024-03-08T10:27:00;10.10;70.40
14142;DHT22;7151;52.246;4.820;2024-03-08T10:29:27;10.20;70.30
14142;DHT22;7151;52.246;4.820;2024-03-08T10:31:54;10.20;70.30
14142;DHT22;7151;52.246;4.820;2024-03-08T10:34:22;10.30;70.30
14142;DHT22;7151;52.246;4.820;2024-03-08T10:36:50;10.40;70.20
14142;DHT22;7151;52.246;4.820;2024-03-08T10:39:23;10.40;70.20
14142;DHT22;7151;52.246;4.820;2024-03-08T10:41:58;10.50;70.00
14142;DHT22;7151;52.246;4.820;2024-03-08T10:47:03;10.60;69.70
14142;DHT22;7151;52.246;4.820;2024-03-08T10:49:38;10.60;69.70
14142;DHT22;7151;52.246;4.820;2024-03-08T10:52:05;10.60;69.70
14142;DHT22;7151;52.246;4.820;2024-03-08T10:54:34;10.80;69.70
14142;DHT22;7151;52.246;4.820;2024-03-08T10:57:05;10.80;69.50
14142;DHT22;7151;52.246;4.820;2024-03-08T10:59:32;10.90;69.40
14142;DHT22;7151;52.246;4.820;2024-03-08T11:01:59;11.00;69.30
14142;DHT22;7151;52.246;4.820;2024-03-08T11:04:25;11.00;69.30
14142;DHT22;7151;52.246;4.820;2024-03-08T11:06:51;11.10;69.30
14142;DHT22;7151;52.246;4.820;2024-03-08T11:09:32;11.10;69.20
14142;DHT22;7151;52.246;4.820;2024-03-08T11:14:50;11.30;69.00
14142;DHT22;7151;52.246;4.820;2024-03-08T11:17:20;11.30;69.00
14142;DHT22;7151;52.246;4.820;2024-03-08T11:19:47;11.40;68.90
14142;DHT22;7151;52.246;4.820;2024-03-08T11:22:25;11.50;69.00
14142;DHT22;7151;52.246;4.820;2024-03-08T11:24:53;11.50;68.90
14142;DHT22;7151;52.246;4.820;2024-03-08T11:27:18;11.60;68.80
14142;DHT22;7151;52.246;4.820;2024-03-08T11:29:59;11.70;68.60
14142;DHT22;7151;52.246;4.820;2024-03-08T11:32:29;11.70;68.40
14142;DHT22;7151;52.246;4.820;2024-03-08T11:34:55;11.70;68.40
14142;DHT22;7151;52.246;4.820;2024-03-08T11:37:22;11.80;68.20
14142;DHT22;7151;52.246;4.820;2024-03-08T11:39:49;11.90;68.20
14142;DHT22;7151;52.246;4.820;2024-03-08T11:42:15;12.00;68.10
14142;DHT22;7151;52.246;4.820;2024-03-08T11:44:50;12.00;68.00
14142;DHT22;7151;52.246;4.820;2024-03-08T11:47:16;12.10;67.80
14142;DHT22;7151;52.246;4.820;2024-03-08T11:49:41;12.10;67.70
14142;DHT22;7151;52.246;4.820;2024-03-08T11:52:13;12.30;67.70
14142;DHT22;7151;52.246;4.820;2024-03-08T11:54:47;12.30;67.60
14142;DHT22;7151;52.246;4.820;2024-03-08T11:57:18;12.30;67.70
14142;DHT22;7151;52.246;4.820;2024-03-08T11:59:53;12.40;67.60
14142;DHT22;7151;52.246;4.820;2024-03-08T12:02:19;12.50;67.40
14142;DHT22;7151;52.246;4.820;2024-03-08T12:04:45;12.50;67.20
14142;DHT22;7151;52.246;4.820;2024-03-08T12:07:11;12.60;67.10
14142;DHT22;7151;52.246;4.820;2024-03-08T12:09:40;12.70;67.10
14142;DHT22;7151;52.246;4.820;2024-03-08T12:12:07;12.70;66.90
14142;DHT22;7151;52.246;4.820;2024-03-08T12:14:33;12.80;67.20
14142;DHT22;7151;52.246;4.820;2024-03-08T12:16:59;12.90;68.30
14142;DHT22;7151;52.246;4.820;2024-03-08T12:19:28;13.10;68.60
14142;DHT22;7151;52.246;4.820;2024-03-08T12:21:54;13.10;67.80
14142;DHT22;7151;52.246;4.820;2024-03-08T12:24:20;13.20;67.30
14142;DHT22;7151;52.246;4.820;2024-03-08T12:26:47;13.30;66.80
14142;DHT22;7151;52.246;4.820;2024-03-08T12:29:27;13.40;66.50
14142;DHT22;7151;52.246;4.820;2024-03-08T12:31:59;13.40;66.20
14142;DHT22;7151;52.246;4.820;2024-03-08T12:34:26;13.50;66.00
14142;DHT22;7151;52.246;4.820;2024-03-08T12:36:55;13.50;65.60
14142;DHT22;7151;52.246;4.820;2024-03-08T12:39:22;13.50;65.40
14142;DHT22;7151;52.246;4.820;2024-03-08T12:41:48;13.60;64.90
14142;DHT22;7151;52.246;4.820;2024-03-08T12:44:17;13.60;65.00
14142;DHT22;7151;52.246;4.820;2024-03-08T12:46:44;13.70;64.80
14142;DHT22;7151;52.246;4.820;2024-03-08T12:49:10;13.80;64.60
14142;DHT22;7151;52.246;4.820;2024-03-08T12:51:38;13.80;64.60
14142;DHT22;7151;52.246;4.820;2024-03-08T12:54:05;13.90;64.50
14142;DHT22;7151;52.246;4.820;2024-03-08T12:56:33;14.00;64.30
14142;DHT22;7151;52.246;4.820;2024-03-08T12:59:00;14.00;64.00
14142;DHT22;7151;52.246;4.820;2024-03-08T13:01:26;14.00;63.80
14142;DHT22;7151;52.246;4.820;2024-03-08T13:03:53;14.10;63.70
14142;DHT22;7151;52.246;4.820;2024-03-08T13:06:19;14.20;63.60
14142;DHT22;7151;52.246;4.820;2024-03-08T13:08:47;14.20;63.60
14142;DHT22;7151;52.246;4.820;2024-03-08T13:11:13;14.20;63.40
14142;DHT22;7151;52.246;4.820;2024-03-08T13:13:40;14.40;63.30
14142;DHT22;7151;52.246;4.820;2024-03-08T13:16:08;14.50;63.20
14142;DHT22;7151;52.246;4.820;2024-03-08T13:18:35;14.60;63.00
14142;DHT22;7151;52.246;4.820;2024-03-08T13:21:00;14.60;62.80
14142;DHT22;7151;52.246;4.820;2024-03-08T13:23:33;14.70;62.60
14142;DHT22;7151;52.246;4.820;2024-03-08T13:26:05;14.70;62.50
14142;DHT22;7151;52.246;4.820;2024-03-08T13:28:30;14.80;62.40
14142;DHT22;7151;52.246;4.820;2024-03-08T13:30:57;14.90;62.20
14142;DHT22;7151;52.246;4.820;2024-03-08T13:33:27;14.90;62.10
14142;DHT22;7151;52.246;4.820;2024-03-08T13:35:52;14.90;61.70
14142;DHT22;7151;52.246;4.820;2024-03-08T13:38:18;15.00;61.50
14142;DHT22;7151;52.246;4.820;2024-03-08T13:40:46;15.00;61.20
14142;DHT22;7151;52.246;4.820;2024-03-08T13:43:13;15.10;61.20
14142;DHT22;7151;52.246;4.820;2024-03-08T13:45:38;15.00;60.80
14142;DHT22;7151;52.246;4.820;2024-03-08T13:48:04;15.10;60.40
14142;DHT22;7151;52.246;4.820;2024-03-08T13:50:30;15.10;60.00
14142;DHT22;7151;52.246;4.820;2024-03-08T13:52:56;15.10;59.80
14142;DHT22;7151;52.246;4.820;2024-03-08T13:55:22;15.00;59.70
14142;DHT22;7151;52.246;4.820;2024-03-08T13:57:49;15.10;59.60
14142;DHT22;7151;52.246;4.820;2024-03-08T14:00:16;15.00;59.50
14142;DHT22;7151;52.246;4.820;2024-03-08T14:02:45;15.00;59.60
14142;DHT22;7151;52.246;4.820;2024-03-08T14:05:11;15.10;59.80
14142;DHT22;7151;52.246;4.820;2024-03-08T14:07:38;15.10;59.70
14142;DHT22;7151;52.246;4.820;2024-03-08T14:10:04;15.10;59.60
14142;DHT22;7151;52.246;4.820;2024-03-08T14:12:32;15.20;59.30
14142;DHT22;7151;52.246;4.820;2024-03-08T14:14:58;15.20;59.30
14142;DHT22;7151;52.246;4.820;2024-03-08T14:17:25;15.30;58.90
14142;DHT22;7151;52.246;4.820;2024-03-08T14:19:52;15.30;58.90
14142;DHT22;7151;52.246;4.820;2024-03-08T14:22:18;15.30;58.90
14142;DHT22;7151;52.246;4.820;2024-03-08T14:24:45;15.40;58.70
14142;DHT22;7151;52.246;4.820;2024-03-08T14:27:11;15.40;58.70
14142;DHT22;7151;52.246;4.820;2024-03-08T14:29:37;15.50;58.80
14142;DHT22;7151;52.246;4.820;2024-03-08T14:32:04;15.50;58.70
14142;DHT22;7151;52.246;4.820;2024-03-08T14:34:32;15.60;58.70
14142;DHT22;7151;52.246;4.820;2024-03-08T14:36:59;15.60;58.70
14142;DHT22;7151;52.246;4.820;2024-03-08T14:39:25;15.70;58.80
14142;DHT22;7151;52.246;4.820;2024-03-08T14:41:55;15.80;58.80
14142;DHT22;7151;52.246;4.820;2024-03-08T14:44:24;15.90;58.60
14142;DHT22;7151;52.246;4.820;2024-03-08T14:46:52;15.90;58.30
14142;DHT22;7151;52.246;4.820;2024-03-08T14:49:18;16.00;58.00
14142;DHT22;7151;52.246;4.820;2024-03-08T14:51:47;16.10;58.00
14142;DHT22;7151;52.246;4.820;2024-03-08T14:54:15;16.10;57.50
14142;DHT22;7151;52.246;4.820;2024-03-08T14:56:40;16.20;57.40
14142;DHT22;7151;52.246;4.820;2024-03-08T14:59:08;16.20;57.50
14142;DHT22;7151;52.246;4.820;2024-03-08T15:01:35;16.30;57.60
14142;DHT22;7151;52.246;4.820;2024-03-08T15:04:04;16.30;58.10
14142;DHT22;7151;52.246;4.820;2024-03-08T15:06:39;16.40;57.50
14142;DHT22;7151;52.246;4.820;2024-03-08T15:09:05;16.40;57.50
14142;DHT22;7151;52.246;4.820;2024-03-08T15:11:40;16.50;57.10
14142;DHT22;7151;52.246;4.820;2024-03-08T15:14:06;16.60;57.20
14142;DHT22;7151;52.246;4.820;2024-03-08T15:16:36;16.60;57.00
14142;DHT22;7151;52.246;4.820;2024-03-08T15:19:02;16.70;57.00
14142;DHT22;7151;52.246;4.820;2024-03-08T15:21:31;16.80;56.90
14142;DHT22;7151;52.246;4.820;2024-03-08T15:23:56;16.80;56.80
14142;DHT22;7151;52.246;4.820;2024-03-08T15:26:22;16.80;56.50
14142;DHT22;7151;52.246;4.820;2024-03-08T15:28:47;16.80;56.40
14142;DHT22;7151;52.246;4.820;2024-03-08T15:31:18;16.80;56.20
14142;DHT22;7151;52.246;4.820;2024-03-08T15:33:46;16.90;56.00
14142;DHT22;7151;52.246;4.820;2024-03-08T15:36:17;16.80;55.40
14142;DHT22;7151;52.246;4.820;2024-03-08T15:38:46;16.70;55.60
14142;DHT22;7151;52.246;4.820;2024-03-08T15:41:12;16.70;55.60
14142;DHT22;7151;52.246;4.820;2024-03-08T15:43:39;16.60;55.50
14142;DHT22;7151;52.246;4.820;2024-03-08T15:46:09;16.50;55.40
14142;DHT22;7151;52.246;4.820;2024-03-08T15:48:36;16.40;55.50
14142;DHT22;7151;52.246;4.820;2024-03-08T15:51:02;16.30;55.60
14142;DHT22;7151;52.246;4.820;2024-03-08T15:53:30;16.20;55.60
14142;DHT22;7151;52.246;4.820;2024-03-08T15:55:57;16.10;55.50
14142;DHT22;7151;52.246;4.820;2024-03-08T15:58:24;16.00;55.50